Time;durP1;ratioP1;P1;durP2;ratioP2;P2;SDS_P1;SDS_P2;PMS_P1;PMS_P2;Temp;Humidity;BMP_temperature;BMP_pressure;BME280_temperature;BME280_humidity;BME280_pressure;Samples;Min_cycle;Max_cycle;Signal;HPM_P1;HPM_P2
2022/03/13 00:01:03;;;;;;;5.28;2.65;;;;;;;;;;5138749;27;20130;-68
2022/03/13 00:03:33;;;;;;;4.00;2.00;;;;;;;;;;5140416;27;20072;-69
2022/03/13 00:06:01;;;;;;;4.55;2.33;;;;;;;;;;5140485;27;20035;-69
2022/03/13 00:08:34;;;;;;;5.65;2.80;;;;;;;;;;5139171;27;20019;-69
2022/03/13 00:11:08;;;;;;;5.15;2.70;;;;;;;;;;5140437;27;20016;-69
2022/03/13 00:13:39;;;;;;;7.68;2.75;;;;;;;;;;5140370;27;20038;-68
2022/03/13 00:16:08;;;;;;;5.85;2.83;;;;;;;;;;5139224;27;20027;-69
2022/03/13 00:18:37;;;;;;;7.50;2.30;;;;;;;;;;5141232;27;20154;-68
2022/03/13 00:21:06;;;;;;;5.72;2.65;;;;;;;;;;5140097;27;20507;-69
2022/03/13 00:23:34;;;;;;;7.45;1.98;;;;;;;;;;5141113;27;20411;-69
2022/03/13 00:26:02;;;;;;;5.65;2.22;;;;;;;;;;5139058;27;20110;-68
2022/03/13 00:28:30;;;;;;;5.35;2.33;;;;;;;;;;5138995;27;20350;-69
2022/03/13 00:30:58;;;;;;;7.45;2.15;;;;;;;;;;5138945;27;20016;-69
2022/03/13 00:33:26;;;;;;;5.93;1.80;;;;;;;;;;5138948;27;20031;-69
2022/03/13 00:35:54;;;;;;;5.50;1.90;;;;;;;;;;5140044;27;20072;-69
2022/03/13 00:38:25;;;;;;;7.40;1.98;;;;;;;;;;5139910;27;20023;-69
2022/03/13 00:40:53;;;;;;;5.72;1.63;;;;;;;;;;5139897;27;20015;-69
2022/03/13 00:43:22;;;;;;;8.18;2.08;;;;;;;;;;5139787;27;20112;-69
2022/03/13 00:45:50;;;;;;;7.75;2.03;;;;;;;;;;5138580;27;20027;-69
2022/03/13 00:48:17;;;;;;;6.78;2.30;;;;;;;;;;5139680;27;20023;-69
2022/03/13 00:50:45;;;;;;;5.15;2.25;;;;;;;;;;5139659;27;20102;-69
2022/03/13 00:53:13;;;;;;;9.25;2.08;;;;;;;;;;5139627;27;20090;-69
2022/03/13 00:55:41;;;;;;;7.75;2.60;;;;;;;;;;5138463;27;20024;-69
2022/03/13 00:58:09;;;;;;;8.57;2.10;;;;;;;;;;5138426;27;20030;-69
2022/03/13 01:00:35;;;;;;;7.97;2.22;;;;;;;;;;5139533;27;20126;-70
2022/03/13 01:03:02;;;;;;;7.45;1.92;;;;;;;;;;5139438;27;20323;-69
2022/03/13 01:05:30;;;;;;;7.50;1.83;;;;;;;;;;5139370;27;20015;-69
2022/03/13 01:07:59;;;;;;;6.72;1.58;;;;;;;;;;5139804;27;20027;-69
2022/03/13 01:10:26;;;;;;;9.18;2.70;;;;;;;;;;5139052;27;20110;-69
2022/03/13 01:12:55;;;;;;;6.38;2.70;;;;;;;;;;5139080;27;20415;-69
2022/03/13 01:15:22;;;;;;;11.68;3.72;;;;;;;;;;5139210;27;20030;-69
2022/03/13 01:17:50;;;;;;;11.77;4.40;;;;;;;;;;5139161;27;20439;-69
2022/03/13 01:20:21;;;;;;;13.50;5.85;;;;;;;;;;5137852;27;20114;-69
2022/03/13 01:22:49;;;;;;;17.08;7.43;;;;;;;;;;5138944;27;20027;-69
2022/03/13 01:25:17;;;;;;;17.25;7.60;;;;;;;;;;5138976;27;20027;-69
2022/03/13 01:27:45;;;;;;;15.57;7.10;;;;;;;;;;5137774;27;20015;-69
2022/03/13 01:30:15;;;;;;;18.50;6.30;;;;;;;;;;5138838;27;20023;-69
2022/03/13 01:32:51;;;;;;;15.00;6.18;;;;;;;;;;5138825;27;20023;-69
2022/03/13 01:35:23;;;;;;;17.73;6.43;;;;;;;;;;5138721;27;20026;-68
2022/03/13 01:37:51;;;;;;;15.07;5.57;;;;;;;;;;5138684;27;20071;-68
2022/03/13 01:40:23;;;;;;;11.85;5.40;;;;;;;;;;5138579;27;20073;-69
2022/03/13 01:42:51;;;;;;;12.80;5.30;;;;;;;;;;5137573;27;20058;-69
2022/03/13 01:45:23;;;;;;;15.75;5.55;;;;;;;;;;5138528;27;20019;-69
2022/03/13 01:47:51;;;;;;;13.63;5.22;;;;;;;;;;5137442;27;20360;-69
2022/03/13 01:50:18;;;;;;;12.57;5.13;;;;;;;;;;5138442;27;20016;-69
2022/03/13 01:52:49;;;;;;;12.30;5.60;;;;;;;;;;5138451;27;20031;-69
2022/03/13 01:55:17;;;;;;;13.05;6.72;;;;;;;;;;5138349;27;20062;-69
2022/03/13 01:57:49;;;;;;;12.82;5.43;;;;;;;;;;5138349;27;20027;-69
2022/03/13 02:00:17;;;;;;;15.30;5.72;;;;;;;;;;5138010;27;20051;-69
2022/03/13 02:02:48;;;;;;;23.08;8.57;;;;;;;;;;5137147;27;20335;-69
2022/03/13 02:05:45;;;;;;;15.75;5.75;;;;;;;;;;5138191;27;20479;-69
2022/03/13 02:08:18;;;;;;;16.23;6.65;;;;;;;;;;5133464;27;20039;-69
2022/03/13 02:10:46;;;;;;;13.43;6.47;;;;;;;;;;5138123;27;20027;-69
2022/03/13 02:13:15;;;;;;;12.75;6.22;;;;;;;;;;5138082;27;20311;-69
2022/03/13 02:15:42;;;;;;;17.85;9.60;;;;;;;;;;5138014;27;20102;-69
2022/03/13 02:18:10;;;;;;;21.85;11.02;;;;;;;;;;5136701;27;20019;-69
2022/03/13 02:20:44;;;;;;;21.02;11.90;;;;;;;;;;5137857;27;20030;-69
2022/03/13 02:23:22;;;;;;;55.95;36.13;;;;;;;;;;5137006;27;20036;-69
2022/03/13 02:25:51;;;;;;;55.22;30.58;;;;;;;;;;5136703;27;20030;-69
2022/03/13 02:28:22;;;;;;;48.22;27.08;;;;;;;;;;5137765;27;20411;-69
2022/03/13 02:30:50;;;;;;;41.92;22.63;;;;;;;;;;5137693;27;20420;-69
2022/03/13 02:33:20;;;;;;;41.17;22.85;;;;;;;;;;5136447;27;20110;-69
2022/03/13 02:35:56;;;;;;;43.60;20.52;;;;;;;;;;5137610;27;20297;-68
2022/03/13 02:38:24;;;;;;;30.92;17.15;;;;;;;;;;5137610;27;20023;-68
2022/03/13 02:40:52;;;;;;;20.52;11.20;;;;;;;;;;5137580;27;20015;-68
2022/03/13 02:43:19;;;;;;;24.90;13.27;;;;;;;;;;5137362;27;20019;-67
2022/03/13 02:45:52;;;;;;;21.67;12.23;;;;;;;;;;5137469;27;20128;-67
2022/03/13 02:48:19;;;;;;;25.10;13.95;;;;;;;;;;5137319;27;20076;-68
2022/03/13 02:50:48;;;;;;;26.40;13.18;;;;;;;;;;5137410;27;20076;-68
2022/03/13 02:53:16;;;;;;;36.50;23.50;;;;;;;;;;5137264;27;20058;-67
2022/03/13 02:55:44;;;;;;;30.00;14.13;;;;;;;;;;5137152;27;20027;-67
2022/03/13 02:58:12;;;;;;;31.85;14.85;;;;;;;;;;5137202;27;20029;-67
2022/03/13 03:00:44;;;;;;;26.30;12.60;;;;;;;;;;5136984;27;20050;-69
2022/03/13 03:03:11;;;;;;;14.85;6.68;;;;;;;;;;5136000;27;20110;-69
2022/03/13 03:05:39;;;;;;;29.08;12.93;;;;;;;;;;5137041;27;20091;-69
2022/03/13 03:08:07;;;;;;;58.28;30.10;;;;;;;;;;5135933;27;20038;-69
2022/03/13 03:10:36;;;;;;;14.13;8.25;;;;;;;;;;5137076;27;20015;-69
2022/03/13 03:13:04;;;;;;;10.93;6.05;;;;;;;;;;5135902;27;20119;-69
2022/03/13 03:15:32;;;;;;;14.10;5.93;;;;;;;;;;5137053;28;20027;-69
2022/03/13 03:17:59;;;;;;;16.30;8.20;;;;;;;;;;5136667;28;20079;-69
2022/03/13 03:20:27;;;;;;;23.85;10.35;;;;;;;;;;5135975;27;20102;-69
2022/03/13 03:22:55;;;;;;;27.98;15.68;;;;;;;;;;5136980;28;20412;-69
2022/03/13 03:25:26;;;;;;;17.33;8.70;;;;;;;;;;5140103;28;20039;-69
2022/03/13 03:27:54;;;;;;;39.95;14.07;;;;;;;;;;5135744;28;20019;-69
2022/03/13 03:30:23;;;;;;;31.27;14.23;;;;;;;;;;5135783;27;20034;-69
2022/03/13 03:32:54;;;;;;;29.30;16.63;;;;;;;;;;5136881;28;20042;-68
2022/03/13 03:35:22;;;;;;;33.80;16.98;;;;;;;;;;5139845;27;20020;-69
2022/03/13 03:37:51;;;;;;;23.15;10.27;;;;;;;;;;5141024;27;20019;-68
2022/03/13 03:40:28;;;;;;;20.27;11.18;;;;;;;;;;5140938;27;20025;-69
2022/03/13 03:42:56;;;;;;;31.02;14.65;;;;;;;;;;5140911;27;20050;-68
2022/03/13 03:45:25;;;;;;;28.25;14.68;;;;;;;;;;5140926;27;20015;-69
2022/03/13 03:47:52;;;;;;;17.55;10.15;;;;;;;;;;5140816;27;20118;-69
2022/03/13 03:50:20;;;;;;;39.55;10.90;;;;;;;;;;5140779;27;20361;-68
2022/03/13 03:52:48;;;;;;;47.00;17.08;;;;;;;;;;5140734;27;20027;-69
2022/03/13 03:55:15;;;;;;;34.83;13.63;;;;;;;;;;5139556;27;20027;-69
2022/03/13 03:57:43;;;;;;;26.48;10.30;;;;;;;;;;5140677;27;20319;-68
2022/03/13 04:00:09;;;;;;;33.13;17.95;;;;;;;;;;5140069;27;20034;-68
2022/03/13 04:02:38;;;;;;;18.65;9.13;;;;;;;;;;5140492;27;20051;-69
2022/03/13 04:05:09;;;;;;;25.92;12.10;;;;;;;;;;5140415;27;20033;-69
2022/03/13 04:07:37;;;;;;;24.23;12.25;;;;;;;;;;5140603;27;20039;-69
2022/03/13 04:10:05;;;;;;;17.77;8.05;;;;;;;;;;5140201;27;20064;-69
2022/03/13 04:12:34;;;;;;;18.55;9.93;;;;;;;;;;5140254;27;20140;-69
2022/03/13 04:15:02;;;;;;;15.02;8.70;;;;;;;;;;5139054;27;20057;-69
2022/03/13 04:17:31;;;;;;;20.88;9.93;;;;;;;;;;5139970;27;20023;-69
2022/03/13 04:19:59;;;;;;;11.98;8.50;;;;;;;;;;5140016;27;20027;-70
2022/03/13 04:22:28;;;;;;;32.65;17.13;;;;;;;;;;5138738;27;20327;-69
2022/03/13 04:24:55;;;;;;;17.98;11.15;;;;;;;;;;5138957;27;20027;-68
2022/03/13 04:27:23;;;;;;;19.23;9.98;;;;;;;;;;5140083;27;20026;-68
2022/03/13 04:29:50;;;;;;;14.23;8.85;;;;;;;;;;5140018;27;20027;-69
2022/03/13 04:32:22;;;;;;;19.63;8.55;;;;;;;;;;5138827;27;20026;-70
2022/03/13 04:34:50;;;;;;;23.08;8.75;;;;;;;;;;5139843;27;20434;-68
2022/03/13 04:37:18;;;;;;;31.30;10.43;;;;;;;;;;5138716;27;20094;-70
2022/03/13 04:39:50;;;;;;;44.08;10.80;;;;;;;;;;5139831;27;20047;-69
2022/03/13 04:42:18;;;;;;;39.15;10.15;;;;;;;;;;5139544;27;20407;-69
2022/03/13 04:44:46;;;;;;;57.30;12.93;;;;;;;;;;5139575;27;20139;-69
2022/03/13 04:47:14;;;;;;;61.17;13.48;;;;;;;;;;5138878;27;20023;-69
2022/03/13 04:49:41;;;;;;;43.35;10.27;;;;;;;;;;5138573;27;20023;-70
2022/03/13 04:52:09;;;;;;;53.25;14.52;;;;;;;;;;5139636;27;20049;-69
2022/03/13 04:54:38;;;;;;;29.02;8.02;;;;;;;;;;5138750;27;20410;-69
2022/03/13 04:57:06;;;;;;;32.38;10.85;;;;;;;;;;5139550;27;20035;-69
2022/03/13 04:59:34;;;;;;;26.58;8.85;;;;;;;;;;5139577;27;20026;-69
2022/03/13 05:02:01;;;;;;;17.02;7.32;;;;;;;;;;5139309;27;20047;-70
2022/03/13 05:04:31;;;;;;;16.95;5.55;;;;;;;;;;5138322;27;20023;-69
2022/03/13 05:06:59;;;;;;;12.82;6.28;;;;;;;;;;5139555;27;20411;-69
2022/03/13 05:09:27;;;;;;;13.55;7.35;;;;;;;;;;5138175;27;20023;-69
2022/03/13 05:11:55;;;;;;;16.83;8.95;;;;;;;;;;5138244;27;20023;-71
2022/03/13 05:14:22;;;;;;;17.80;9.02;;;;;;;;;;5139113;27;20016;-70
2022/03/13 05:16:50;;;;;;;17.27;9.25;;;;;;;;;;5138946;27;20355;-69
2022/03/13 05:19:17;;;;;;;17.20;8.98;;;;;;;;;;5139139;27;20026;-69
2022/03/13 05:21:45;;;;;;;19.65;9.30;;;;;;;;;;5139016;27;20031;-70
2022/03/13 05:24:15;;;;;;;12.35;6.78;;;;;;;;;;5138792;27;20092;-70
2022/03/13 05:26:45;;;;;;;12.18;6.20;;;;;;;;;;5138405;27;20023;-69
2022/03/13 05:29:12;;;;;;;16.15;6.53;;;;;;;;;;5138521;27;20020;-69
2022/03/13 05:31:40;;;;;;;11.50;6.15;;;;;;;;;;5138503;27;20019;-69
2022/03/13 05:34:08;;;;;;;19.17;8.43;;;;;;;;;;5138774;27;20022;-69
2022/03/13 05:36:36;;;;;;;15.90;6.38;;;;;;;;;;5138654;27;20019;-69
2022/03/13 05:39:03;;;;;;;13.30;6.28;;;;;;;;;;5138646;27;20041;-69
2022/03/13 05:41:33;;;;;;;15.77;6.75;;;;;;;;;;5138427;27;20030;-69
2022/03/13 05:44:00;;;;;;;14.35;6.60;;;;;;;;;;5138485;27;20020;-69
2022/03/13 05:46:27;;;;;;;17.10;7.72;;;;;;;;;;5137410;27;20102;-69
2022/03/13 05:48:58;;;;;;;12.90;7.00;;;;;;;;;;5138561;27;20415;-69
2022/03/13 05:51:26;;;;;;;13.18;6.15;;;;;;;;;;5138517;27;20427;-69
2022/03/13 05:53:53;;;;;;;49.17;18.75;;;;;;;;;;5137279;27;20020;-69
2022/03/13 05:56:23;;;;;;;17.35;8.68;;;;;;;;;;5137188;27;20019;-69
2022/03/13 05:58:51;;;;;;;27.35;12.32;;;;;;;;;;5138317;27;20046;-69
2022/03/13 06:01:17;;;;;;;45.42;16.48;;;;;;;;;;5137044;27;20122;-70
2022/03/13 06:03:44;;;;;;;34.25;12.95;;;;;;;;;;5138040;27;20023;-70
2022/03/13 06:06:15;;;;;;;23.92;9.18;;;;;;;;;;5138229;27;20508;-68
2022/03/13 06:08:42;;;;;;;18.48;9.02;;;;;;;;;;5136978;27;20438;-69
2022/03/13 06:11:10;;;;;;;13.82;8.07;;;;;;;;;;5137831;27;20023;-69
2022/03/13 06:13:38;;;;;;;17.25;7.95;;;;;;;;;;5136792;27;20030;-69
2022/03/13 06:16:05;;;;;;;17.02;6.93;;;;;;;;;;5137883;27;20424;-70
2022/03/13 06:18:33;;;;;;;16.55;6.60;;;;;;;;;;5136896;27;20110;-69
2022/03/13 06:21:01;;;;;;;17.30;6.75;;;;;;;;;;5136804;27;20066;-69
2022/03/13 06:23:29;;;;;;;17.35;6.78;;;;;;;;;;5137692;27;20058;-69
2022/03/13 06:26:00;;;;;;;19.85;6.97;;;;;;;;;;5137749;27;20323;-69
2022/03/13 06:28:28;;;;;;;18.27;6.47;;;;;;;;;;5137724;27;20058;-69
2022/03/13 06:30:55;;;;;;;21.63;6.78;;;;;;;;;;5137675;27;20027;-69
2022/03/13 06:33:27;;;;;;;17.00;5.95;;;;;;;;;;5136643;27;20345;-70
2022/03/13 06:35:55;;;;;;;16.40;6.13;;;;;;;;;;5136610;27;20041;-69
2022/03/13 06:38:22;;;;;;;15.27;6.20;;;;;;;;;;5136488;27;20115;-69
2022/03/13 06:40:51;;;;;;;23.27;9.20;;;;;;;;;;5136407;27;20023;-69
2022/03/13 06:43:18;;;;;;;24.95;10.30;;;;;;;;;;5137186;27;20035;-70
2022/03/13 06:45:46;;;;;;;20.90;11.38;;;;;;;;;;5137471;27;20023;-69
2022/03/13 06:48:15;;;;;;;21.90;10.43;;;;;;;;;;5137484;27;20023;-69
2022/03/13 06:50:43;;;;;;;17.33;9.00;;;;;;;;;;5137442;27;20015;-69
2022/03/13 06:53:10;;;;;;;27.55;15.20;;;;;;;;;;5136156;27;20072;-70
2022/03/13 06:55:38;;;;;;;22.95;13.32;;;;;;;;;;5137079;27;20019;-69
2022/03/13 06:58:06;;;;;;;29.02;14.77;;;;;;;;;;5135977;27;20030;-69
2022/03/13 07:00:33;;;;;;;26.73;16.92;;;;;;;;;;5136990;27;20132;-69
2022/03/13 07:03:00;;;;;;;26.08;13.02;;;;;;;;;;5136941;27;20115;-70
2022/03/13 07:05:28;;;;;;;30.85;17.42;;;;;;;;;;5137069;27;20015;-69
2022/03/13 07:07:57;;;;;;;39.45;21.35;;;;;;;;;;5136210;27;20027;-70
2022/03/13 07:10:24;;;;;;;36.78;21.95;;;;;;;;;;5136694;27;20023;-70
2022/03/13 07:12:55;;;;;;;31.40;18.55;;;;;;;;;;5135956;27;20062;-70
2022/03/13 07:15:23;;;;;;;34.10;19.17;;;;;;;;;;5136976;27;20069;-68
2022/03/13 07:17:50;;;;;;;39.78;21.83;;;;;;;;;;5136750;28;20027;-71
2022/03/13 07:20:17;;;;;;;34.97;19.67;;;;;;;;;;5136983;28;20076;-70
2022/03/13 07:22:46;;;;;;;35.28;19.52;;;;;;;;;;5136717;28;20027;-69
2022/03/13 07:25:14;;;;;;;38.08;21.92;;;;;;;;;;5136821;28;20050;-68
2022/03/13 07:27:42;;;;;;;34.75;22.38;;;;;;;;;;5135643;28;20031;-69
2022/03/13 07:30:14;;;;;;;40.97;25.33;;;;;;;;;;5136318;28;20080;-70
2022/03/13 07:32:42;;;;;;;46.35;28.23;;;;;;;;;;5136448;28;20447;-69
2022/03/13 07:35:10;;;;;;;32.30;19.35;;;;;;;;;;5136246;28;20106;-69
2022/03/13 07:37:38;;;;;;;33.13;19.02;;;;;;;;;;5136367;28;20064;-70
2022/03/13 07:40:05;;;;;;;31.77;16.95;;;;;;;;;;5136505;28;20053;-68
2022/03/13 07:42:33;;;;;;;24.17;14.63;;;;;;;;;;5136425;28;20072;-70
2022/03/13 07:45:01;;;;;;;29.75;14.73;;;;;;;;;;5135454;28;20362;-68
2022/03/13 07:47:30;;;;;;;33.63;18.92;;;;;;;;;;5135459;27;20369;-72
2022/03/13 07:49:58;;;;;;;31.55;17.40;;;;;;;;;;5135482;28;20419;-70
2022/03/13 07:52:26;;;;;;;35.15;17.67;;;;;;;;;;5136366;28;20163;-69
2022/03/13 07:54:53;;;;;;;32.10;18.80;;;;;;;;;;5135208;28;20031;-70
2022/03/13 07:57:21;;;;;;;31.50;17.75;;;;;;;;;;5135165;27;20034;-70
2022/03/13 07:59:48;;;;;;;25.33;13.35;;;;;;;;;;5136505;28;20031;-70
2022/03/13 08:02:16;;;;;;;29.80;14.65;;;;;;;;;;5135925;28;20055;-71
2022/03/13 08:04:43;;;;;;;30.38;13.40;;;;;;;;;;5134900;27;20507;-71
2022/03/13 08:07:11;;;;;;;25.27;11.40;;;;;;;;;;5136555;28;20353;-70
2022/03/13 08:09:39;;;;;;;29.75;14.43;;;;;;;;;;5136299;28;20094;-72
2022/03/13 08:12:07;;;;;;;28.48;14.70;;;;;;;;;;5134962;27;20460;-71
2022/03/13 08:14:34;;;;;;;30.50;14.50;;;;;;;;;;5135196;28;20104;-72
2022/03/13 08:17:02;;;;;;;37.75;20.13;;;;;;;;;;5136062;28;20030;-72
2022/03/13 08:19:30;;;;;;;53.65;26.83;;;;;;;;;;5136034;28;20026;-72
2022/03/13 08:21:58;;;;;;;37.25;19.83;;;;;;;;;;5136495;27;20023;-72
2022/03/13 08:24:26;;;;;;;31.20;11.98;;;;;;;;;;5139504;27;20023;-70
2022/03/13 08:26:53;;;;;;;31.30;12.57;;;;;;;;;;5139547;27;20023;-68
2022/03/13 08:29:21;;;;;;;27.65;13.40;;;;;;;;;;5139667;27;20019;-68
2022/03/13 08:31:48;;;;;;;30.48;12.77;;;;;;;;;;5139602;27;20015;-69
2022/03/13 08:34:16;;;;;;;21.73;7.95;;;;;;;;;;5139698;27;20015;-67
2022/03/13 08:36:45;;;;;;;24.30;10.93;;;;;;;;;;5139574;27;20102;-68
2022/03/13 08:39:15;;;;;;;24.73;9.48;;;;;;;;;;5139735;27;20064;-68
2022/03/13 08:41:43;;;;;;;34.40;14.77;;;;;;;;;;5139408;27;20055;-69
2022/03/13 08:44:11;;;;;;;38.97;23.40;;;;;;;;;;5138624;27;20019;-67
2022/03/13 08:46:39;;;;;;;24.23;9.82;;;;;;;;;;5139570;27;20424;-67
2022/03/13 08:49:07;;;;;;;41.30;22.73;;;;;;;;;;5138375;27;20038;-68
2022/03/13 08:51:35;;;;;;;44.17;23.17;;;;;;;;;;5138348;27;20033;-66
2022/03/13 08:54:02;;;;;;;38.25;20.30;;;;;;;;;;5138117;27;20316;-66
2022/03/13 08:56:30;;;;;;;49.03;22.45;;;;;;;;;;5139181;27;20094;-67
2022/03/13 08:58:58;;;;;;;49.40;26.25;;;;;;;;;;5139172;27;20023;-67
2022/03/13 09:01:25;;;;;;;52.92;29.48;;;;;;;;;;5137980;27;20103;-66
2022/03/13 09:03:52;;;;;;;41.70;22.25;;;;;;;;;;5138803;27;20087;-66
2022/03/13 09:06:21;;;;;;;35.92;16.90;;;;;;;;;;5137849;27;20027;-66
2022/03/13 09:08:51;;;;;;;42.45;20.08;;;;;;;;;;5137983;27;20019;-67
2022/03/13 09:11:19;;;;;;;41.88;18.13;;;;;;;;;;5138947;27;20024;-67
2022/03/13 09:13:46;;;;;;;33.35;12.32;;;;;;;;;;5139144;27;20038;-67
2022/03/13 09:16:14;;;;;;;28.63;11.80;;;;;;;;;;5139245;27;20027;-66
2022/03/13 09:18:42;;;;;;;31.02;15.20;;;;;;;;;;5138891;27;20027;-68
2022/03/13 09:21:09;;;;;;;34.33;17.85;;;;;;;;;;5137811;27;20019;-68
2022/03/13 09:23:37;;;;;;;37.60;18.42;;;;;;;;;;5138699;27;20050;-67
2022/03/13 09:26:04;;;;;;;32.85;14.27;;;;;;;;;;5138952;27;20027;-66
2022/03/13 09:28:32;;;;;;;34.92;18.02;;;;;;;;;;5138812;27;20026;-67
2022/03/13 09:31:03;;;;;;;29.85;13.43;;;;;;;;;;5138753;27;20408;-67
2022/03/13 09:33:30;;;;;;;32.25;13.40;;;;;;;;;;5138371;27;20023;-67
2022/03/13 09:35:58;;;;;;;42.25;17.08;;;;;;;;;;5136794;27;20039;-66
2022/03/13 09:38:25;;;;;;;31.40;13.73;;;;;;;;;;5136861;27;20043;-69
2022/03/13 09:40:57;;;;;;;28.95;13.75;;;;;;;;;;5136687;27;20420;-68
2022/03/13 09:43:25;;;;;;;23.48;8.32;;;;;;;;;;5136550;27;20044;-67
2022/03/13 09:45:53;;;;;;;31.23;9.35;;;;;;;;;;5119391;27;20023;-67
2022/03/13 09:48:21;;;;;;;28.88;10.45;;;;;;;;;;5136668;27;20432;-69
2022/03/13 09:50:48;;;;;;;24.00;8.85;;;;;;;;;;5136503;27;20099;-67
2022/03/13 09:53:16;;;;;;;22.70;7.45;;;;;;;;;;5119481;27;20300;-68
2022/03/13 09:55:47;;;;;;;26.40;8.68;;;;;;;;;;5119083;27;20023;-67
2022/03/13 09:58:14;;;;;;;27.58;8.45;;;;;;;;;;5136500;27;20130;-69
2022/03/13 10:00:41;;;;;;;25.23;10.07;;;;;;;;;;5135943;27;20070;-67
2022/03/13 10:03:11;;;;;;;29.88;10.75;;;;;;;;;;5118424;27;20049;-67
2022/03/13 10:05:47;;;;;;;25.90;10.20;;;;;;;;;;5135658;27;20095;-66
2022/03/13 10:08:15;;;;;;;25.63;10.88;;;;;;;;;;5135738;27;20066;-66
2022/03/13 10:10:49;;;;;;;23.50;8.43;;;;;;;;;;5135963;27;20019;-66
2022/03/13 10:13:18;;;;;;;20.38;8.07;;;;;;;;;;5118395;27;20168;-67
2022/03/13 10:15:48;;;;;;;28.73;7.68;;;;;;;;;;5118620;27;20064;-67
2022/03/13 10:18:19;;;;;;;23.73;8.30;;;;;;;;;;5135675;27;20039;-67
2022/03/13 10:20:47;;;;;;;29.73;9.35;;;;;;;;;;5135779;27;20042;-65
2022/03/13 10:23:22;;;;;;;21.83;8.02;;;;;;;;;;5118423;27;20027;-67
2022/03/13 10:25:50;;;;;;;25.13;9.13;;;;;;;;;;5122279;27;20419;-66
2022/03/13 10:28:24;;;;;;;22.90;8.18;;;;;;;;;;5137585;27;20428;-65
2022/03/13 10:31:02;;;;;;;30.15;8.45;;;;;;;;;;5136555;27;20023;-66
2022/03/13 10:33:36;;;;;;;21.95;7.97;;;;;;;;;;5137591;27;20047;-66
2022/03/13 10:36:15;;;;;;;27.38;9.63;;;;;;;;;;5136418;27;20055;-66
2022/03/13 10:38:43;;;;;;;36.75;12.30;;;;;;;;;;5136270;27;20023;-67
2022/03/13 10:41:13;;;;;;;33.17;12.75;;;;;;;;;;5136507;27;20023;-66
2022/03/13 10:43:55;;;;;;;26.27;11.90;;;;;;;;;;5136699;27;20031;-65
2022/03/13 10:46:27;;;;;;;32.38;12.43;;;;;;;;;;5137350;27;20090;-67
2022/03/13 10:48:55;;;;;;;32.08;14.65;;;;;;;;;;5137266;27;20348;-67
2022/03/13 10:51:39;;;;;;;37.75;16.45;;;;;;;;;;5137271;27;20030;-68
2022/03/13 10:54:07;;;;;;;42.17;21.38;;;;;;;;;;5137498;27;20019;-67
2022/03/13 10:56:35;;;;;;;39.05;14.93;;;;;;;;;;5137185;27;20034;-66
2022/03/13 10:59:22;;;;;;;36.90;16.80;;;;;;;;;;5137208;27;20415;-66
2022/03/13 11:02:09;;;;;;;41.05;16.63;;;;;;;;;;5136982;27;20069;-67
2022/03/13 11:04:45;;;;;;;32.28;13.77;;;;;;;;;;5135044;27;20077;-68
2022/03/13 11:07:13;;;;;;;35.00;14.68;;;;;;;;;;5134867;27;20091;-67
2022/03/13 11:09:41;;;;;;;38.22;16.42;;;;;;;;;;5134883;27;20114;-67
2022/03/13 11:12:17;;;;;;;37.25;12.38;;;;;;;;;;5117846;28;20068;-67
2022/03/13 11:14:49;;;;;;;31.17;13.13;;;;;;;;;;5134145;27;20042;-66
2022/03/13 11:17:18;;;;;;;34.85;15.10;;;;;;;;;;5134403;28;20030;-67
2022/03/13 11:19:49;;;;;;;42.63;14.93;;;;;;;;;;5117820;28;20159;-67
2022/03/13 11:22:19;;;;;;;39.00;14.70;;;;;;;;;;5134839;28;20031;-68
2022/03/13 11:24:48;;;;;;;43.10;15.93;;;;;;;;;;5135125;28;20061;-68
2022/03/13 11:27:15;;;;;;;34.40;14.63;;;;;;;;;;5117749;28;20106;-67
2022/03/13 11:29:48;;;;;;;37.00;16.13;;;;;;;;;;5135049;28;20053;-68
2022/03/13 11:32:34;;;;;;;39.28;18.17;;;;;;;;;;5134785;28;20035;-67
2022/03/13 11:35:16;;;;;;;43.75;20.38;;;;;;;;;;5120340;28;20067;-67
2022/03/13 11:37:50;;;;;;;44.67;18.15;;;;;;;;;;5135626;28;20027;-67
2022/03/13 11:40:19;;;;;;;38.63;17.75;;;;;;;;;;5136778;28;20327;-68
2022/03/13 11:42:52;;;;;;;41.78;18.65;;;;;;;;;;5136719;28;20419;-68
2022/03/13 11:45:32;;;;;;;40.20;17.63;;;;;;;;;;5136666;28;20027;-67
2022/03/13 11:48:20;;;;;;;42.17;18.20;;;;;;;;;;5135598;28;20027;-67
2022/03/13 11:51:02;;;;;;;45.50;20.40;;;;;;;;;;5093826;28;20048;-67
2022/03/13 11:53:45;;;;;;;40.30;17.63;;;;;;;;;;5093821;28;20032;-66
2022/03/13 11:56:27;;;;;;;46.85;16.90;;;;;;;;;;5096342;28;20055;-67
2022/03/13 11:59:15;;;;;;;43.50;18.67;;;;;;;;;;5097180;28;20051;-65
2022/03/13 12:01:42;;;;;;;52.67;30.02;;;;;;;;;;5097204;28;20040;-66
2022/03/13 12:04:14;;;;;;;54.30;27.48;;;;;;;;;;5097477;28;20031;-67
2022/03/13 12:06:44;;;;;;;41.10;19.58;;;;;;;;;;5097528;28;20065;-67
2022/03/13 12:09:14;;;;;;;64.85;29.27;;;;;;;;;;5097570;28;20036;-68
2022/03/13 12:12:12;;;;;;;62.13;28.88;;;;;;;;;;5097501;28;20039;-67
2022/03/13 12:15:02;;;;;;;95.28;52.67;;;;;;;;;;5085468;28;20033;-68
2022/03/13 12:17:30;;;;;;;94.40;51.20;;;;;;;;;;5080503;28;20024;-67
2022/03/13 12:20:02;;;;;;;103.32;58.63;;;;;;;;;;5097261;28;20031;-67
2022/03/13 12:22:31;;;;;;;217.68;108.10;;;;;;;;;;5080396;28;20345;-68
2022/03/13 12:24:59;;;;;;;133.93;65.93;;;;;;;;;;5097405;28;20097;-68
2022/03/13 12:27:27;;;;;;;107.93;58.65;;;;;;;;;;5070374;28;20483;-67
2022/03/13 12:29:56;;;;;;;129.75;67.80;;;;;;;;;;5097311;28;20032;-68
2022/03/13 12:32:34;;;;;;;93.97;45.80;;;;;;;;;;5097253;28;20375;-68
2022/03/13 12:35:03;;;;;;;42.55;16.40;;;;;;;;;;5097132;28;20420;-67
2022/03/13 12:37:31;;;;;;;52.80;14.77;;;;;;;;;;5079773;28;20068;-69
2022/03/13 12:40:00;;;;;;;34.95;7.95;;;;;;;;;;5079882;28;20367;-68
2022/03/13 12:42:34;;;;;;;66.05;16.08;;;;;;;;;;5096924;28;20150;-69
2022/03/13 12:45:09;;;;;;;51.30;10.55;;;;;;;;;;5097128;28;20028;-67
2022/03/13 12:47:42;;;;;;;47.60;7.20;;;;;;;;;;5096947;28;20435;-68
2022/03/13 12:50:10;;;;;;;45.10;8.52;;;;;;;;;;5079274;28;20043;-68
2022/03/13 12:52:39;;;;;;;53.70;7.85;;;;;;;;;;5096660;28;20036;-68
2022/03/13 12:55:06;;;;;;;75.43;16.08;;;;;;;;;;5079661;28;20436;-67
2022/03/13 12:57:35;;;;;;;69.80;15.63;;;;;;;;;;5079642;28;20328;-68
2022/03/13 13:00:01;;;;;;;53.85;16.95;;;;;;;;;;5079232;28;20424;-67
2022/03/13 13:02:32;;;;;;;59.88;16.80;;;;;;;;;;5096392;28;20036;-67
2022/03/13 13:05:04;;;;;;;50.53;15.90;;;;;;;;;;5096533;28;20079;-68
2022/03/13 13:07:37;;;;;;;57.25;15.55;;;;;;;;;;5095645;28;20020;-68
2022/03/13 13:10:09;;;;;;;61.83;20.02;;;;;;;;;;5096513;28;20123;-69
2022/03/13 13:12:37;;;;;;;61.97;18.38;;;;;;;;;;5096448;28;20047;-69
2022/03/13 13:15:07;;;;;;;56.30;20.77;;;;;;;;;;5096372;28;20032;-68
2022/03/13 13:17:35;;;;;;;42.20;13.48;;;;;;;;;;5114943;27;20058;-70
2022/03/13 13:20:04;;;;;;;38.50;13.05;;;;;;;;;;5139135;27;20027;-67
2022/03/13 13:22:40;;;;;;;45.25;15.85;;;;;;;;;;5137833;27;20030;-68
2022/03/13 13:25:20;;;;;;;45.60;20.10;;;;;;;;;;5138915;27;20481;-68
2022/03/13 13:27:55;;;;;;;58.20;27.42;;;;;;;;;;5137763;27;20027;-68
2022/03/13 13:30:31;;;;;;;53.38;22.92;;;;;;;;;;5138880;27;20019;-69
2022/03/13 13:33:16;;;;;;;49.28;21.40;;;;;;;;;;5137720;27;20076;-68
2022/03/13 13:35:54;;;;;;;49.58;23.90;;;;;;;;;;5138654;27;20454;-68
2022/03/13 13:38:34;;;;;;;61.75;30.63;;;;;;;;;;5138803;27;20031;-68
2022/03/13 13:41:05;;;;;;;58.10;30.45;;;;;;;;;;5138673;27;20042;-68
2022/03/13 13:43:44;;;;;;;60.83;29.15;;;;;;;;;;5138664;27;20076;-69
2022/03/13 13:46:17;;;;;;;54.35;22.67;;;;;;;;;;5138409;27;20352;-69
2022/03/13 13:48:51;;;;;;;48.60;21.45;;;;;;;;;;5138480;27;20055;-68
2022/03/13 13:51:30;;;;;;;61.28;25.42;;;;;;;;;;5137266;27;20049;-68
2022/03/13 13:54:08;;;;;;;41.08;16.13;;;;;;;;;;5138240;27;20023;-68
2022/03/13 13:56:37;;;;;;;39.45;13.75;;;;;;;;;;5137023;27;20379;-69
2022/03/13 13:59:22;;;;;;;37.03;14.30;;;;;;;;;;5137019;27;20115;-69
2022/03/13 14:01:49;;;;;;;36.55;12.68;;;;;;;;;;5137811;27;20039;-68
2022/03/13 14:04:16;;;;;;;29.27;11.45;;;;;;;;;;5138114;27;20023;-68
2022/03/13 14:06:44;;;;;;;27.77;11.30;;;;;;;;;;5138098;27;20043;-69
2022/03/13 14:09:12;;;;;;;32.05;12.98;;;;;;;;;;5137138;27;20091;-69
2022/03/13 14:11:41;;;;;;;31.63;12.57;;;;;;;;;;5136789;27;20023;-68
2022/03/13 14:14:09;;;;;;;38.90;14.95;;;;;;;;;;5136657;27;20023;-68
2022/03/13 14:16:40;;;;;;;41.08;13.32;;;;;;;;;;5137931;27;20015;-69
2022/03/13 14:19:08;;;;;;;34.78;12.70;;;;;;;;;;5135645;27;20079;-69
2022/03/13 14:21:38;;;;;;;35.55;10.77;;;;;;;;;;5137714;27;20019;-69
2022/03/13 14:24:06;;;;;;;29.50;11.38;;;;;;;;;;5136858;27;20063;-68
2022/03/13 14:26:34;;;;;;;26.23;9.10;;;;;;;;;;5137680;27;20034;-69
2022/03/13 14:29:02;;;;;;;31.67;9.75;;;;;;;;;;5136420;27;20023;-68
2022/03/13 14:31:33;;;;;;;26.00;9.18;;;;;;;;;;5137634;27;20384;-68
2022/03/13 14:34:01;;;;;;;31.08;8.75;;;;;;;;;;5137655;27;20067;-70
2022/03/13 14:36:29;;;;;;;30.05;8.13;;;;;;;;;;5137518;27;20042;-69
2022/03/13 14:38:56;;;;;;;30.25;5.95;;;;;;;;;;5137225;27;20324;-68